Time;durP1;ratioP1;P1;durP2;ratioP2;P2;SDS_P1;SDS_P2;PMS_P1;PMS_P2;Temp;Humidity;BMP_temperature;BMP_pressure;BME280_temperature;BME280_humidity;BME280_pressure;Samples;Min_cycle;Max_cycle;Signal;HPM_P1;HPM_P2
2022/08/20 00:00:29;;;;;;;6.97;5.43;;;;;;;26.95;37.66;94546.88;5040260;28;20240;-62
2022/08/20 00:02:59;;;;;;;6.13;5.53;;;;;;;26.92;37.67;94548.22;5045822;28;20234;-61
2022/08/20 00:05:31;;;;;;;6.65;6.05;;;;;;;26.95;37.48;94553.09;5038982;28;20261;-61
2022/08/20 00:07:57;;;;;;;6.03;5.43;;;;;;;26.91;37.45;94556.56;5045228;28;20202;-61
2022/08/20 00:10:24;;;;;;;7.25;6.22;;;;;;;26.80;37.87;94550.34;5043063;28;20233;-61
2022/08/20 00:12:51;;;;;;;7.15;6.43;;;;;;;26.84;38.02;94549.56;5042109;28;20218;-61
2022/08/20 00:15:21;;;;;;;6.07;5.57;;;;;;;26.86;37.38;94543.88;5036984;28;20233;-61
2022/08/20 00:17:50;;;;;;;7.75;6.22;;;;;;;26.68;38.51;94553.28;5040824;28;20355;-61
2022/08/20 00:20:19;;;;;;;6.15;5.55;;;;;;;26.76;38.06;94544.69;5048383;28;20210;-62
2022/08/20 00:22:45;;;;;;;8.77;6.13;;;;;;;26.79;38.09;94546.84;5044400;28;20301;-61
2022/08/20 00:25:12;;;;;;;7.05;6.15;;;;;;;26.76;37.85;94549.25;5036958;28;20436;-62
2022/08/20 00:27:37;;;;;;;7.55;5.93;;;;;;;26.75;37.97;94553.81;5045308;28;20244;-61
2022/08/20 00:30:06;;;;;;;6.03;5.50;;;;;;;26.73;38.40;94542.50;5042524;28;20248;-62
2022/08/20 00:32:44;;;;;;;8.15;6.07;;;;;;;26.71;38.26;94544.66;5037068;28;20221;-61
2022/08/20 00:35:09;;;;;;;8.00;6.05;;;;;;;26.69;38.46;94543.28;5053246;28;20237;-60
2022/08/20 00:37:35;;;;;;;6.32;5.70;;;;;;;26.68;38.22;94537.09;5040551;28;20257;-61
2022/08/20 00:40:00;;;;;;;7.82;6.03;;;;;;;26.61;38.66;94547.31;5040823;28;20272;-61
2022/08/20 00:42:26;;;;;;;6.75;6.00;;;;;;;26.53;38.56;94545.13;5041625;28;20247;-62
2022/08/20 00:44:51;;;;;;;7.90;5.93;;;;;;;26.54;39.12;94552.13;5041665;28;20225;-62
2022/08/20 00:47:17;;;;;;;7.25;6.38;;;;;;;26.52;38.76;94538.91;5042552;28;20213;-61
2022/08/20 00:49:44;;;;;;;6.93;6.15;;;;;;;26.55;38.81;94542.97;5039787;28;20695;-61
2022/08/20 00:52:18;;;;;;;6.43;5.82;;;;;;;26.50;39.22;94540.22;5039021;28;20560;-61
2022/08/20 00:54:52;;;;;;;6.88;6.03;;;;;;;26.49;38.83;94533.19;5038721;28;20229;-61
2022/08/20 00:57:29;;;;;;;10.88;6.07;;;;;;;26.48;39.01;94532.38;5038008;28;20272;-61
2022/08/20 00:59:56;;;;;;;6.03;5.43;;;;;;;26.48;38.85;94536.97;5040715;28;20221;-61
2022/08/20 01:02:24;;;;;;;6.95;6.35;;;;;;;26.44;39.33;94531.31;5039774;28;20201;-61
2022/08/20 01:04:56;;;;;;;6.65;5.97;;;;;;;26.35;39.47;94536.34;5038839;28;20212;-62
2022/08/20 01:07:33;;;;;;;9.55;6.13;;;;;;;26.34;39.57;94528.56;5040564;28;20248;-62
2022/08/20 01:10:08;;;;;;;7.45;6.18;;;;;;;26.35;39.46;94516.69;5036273;28;20224;-62
2022/08/20 01:12:34;;;;;;;6.55;5.85;;;;;;;26.32;39.77;94514.53;5042594;28;20249;-62
2022/08/20 01:15:02;;;;;;;8.43;7.15;;;;;;;26.33;39.88;94516.13;5037303;28;20250;-61
2022/08/20 01:17:33;;;;;;;7.85;7.15;;;;;;;26.27;39.61;94512.59;5034491;28;20247;-62
2022/08/20 01:20:06;;;;;;;7.78;7.15;;;;;;;26.28;39.92;94505.34;5043499;28;20206;-61
2022/08/20 01:25:55;;;;;;;7.00;6.25;;;;;;;26.23;39.76;94516.91;5034838;28;20232;-62
2022/08/20 01:28:30;;;;;;;6.70;5.93;;;;;;;26.17;39.85;94515.28;5040455;28;20233;-61
2022/08/20 01:30:56;;;;;;;8.70;6.30;;;;;;;26.13;40.49;94509.56;5038621;28;20256;-61
2022/08/20 01:33:22;;;;;;;6.72;6.13;;;;;;;26.10;40.23;94503.91;5042352;28;20720;-61
2022/08/20 01:35:49;;;;;;;6.88;6.25;;;;;;;26.12;40.23;94502.56;5042038;28;20225;-61
2022/08/20 01:38:16;;;;;;;6.10;5.63;;;;;;;26.06;40.47;94506.31;5033899;28;20303;-60
2022/08/20 01:40:47;;;;;;;6.38;5.72;;;;;;;26.09;40.35;94513.88;5037034;28;20241;-61
2022/08/20 01:43:13;;;;;;;8.02;6.55;;;;;;;26.04;40.50;94508.47;5035121;28;20297;-62
2022/08/20 01:45:38;;;;;;;7.28;6.32;;;;;;;26.03;40.47;94512.19;5044115;28;20305;-62
2022/08/20 01:48:04;;;;;;;6.88;6.18;;;;;;;25.98;40.84;94509.47;5044245;28;20225;-61
2022/08/20 01:50:32;;;;;;;7.10;6.40;;;;;;;25.94;40.91;94503.81;5034654;28;20247;-62
2022/08/20 01:53:09;;;;;;;6.90;6.20;;;;;;;25.97;41.44;94499.78;5039382;28;20225;-62
2022/08/20 01:55:35;;;;;;;8.20;6.03;;;;;;;25.96;40.65;94492.78;5038285;28;20274;-62
2022/08/20 01:58:01;;;;;;;7.38;6.60;;;;;;;25.90;41.13;94496.50;5044137;28;20225;-62
2022/08/20 02:00:26;;;;;;;8.77;6.30;;;;;;;25.91;40.75;94484.69;5033757;28;20267;-61
2022/08/20 02:02:52;;;;;;;6.88;6.28;;;;;;;25.89;40.75;94492.19;5037642;28;20254;-62
2022/08/20 02:05:18;;;;;;;8.60;6.28;;;;;;;25.82;41.18;94491.56;5040578;28;20198;-61
2022/08/20 02:07:45;;;;;;;7.40;6.35;;;;;;;25.80;41.00;94489.16;5034752;28;20206;-61
2022/08/20 02:10:14;;;;;;;8.63;6.28;;;;;;;25.75;40.97;94478.34;5034088;28;20218;-61
2022/08/20 02:12:39;;;;;;;7.97;6.38;;;;;;;25.72;41.21;94481.56;5041363;28;20239;-62
2022/08/20 02:15:09;;;;;;;6.60;6.10;;;;;;;25.73;41.54;94486.69;5036652;28;20230;-61
2022/08/20 02:17:35;;;;;;;7.10;6.40;;;;;;;25.70;41.23;94483.69;5034606;28;20219;-60
2022/08/20 02:20:06;;;;;;;6.72;6.05;;;;;;;25.62;41.68;94487.69;5035279;28;20198;-61
2022/08/20 02:22:51;;;;;;;7.03;6.38;;;;;;;25.60;41.70;94489.00;5032152;28;20256;-61
2022/08/20 02:25:19;;;;;;;6.72;6.22;;;;;;;25.60;41.98;94487.13;5036201;28;20217;-61
2022/08/20 02:27:47;;;;;;;8.38;6.82;;;;;;;25.56;42.33;94488.72;5029919;28;20224;-62
2022/08/20 02:30:26;;;;;;;8.30;6.60;;;;;;;25.58;42.34;94491.13;5037417;28;20214;-61
2022/08/20 02:32:52;;;;;;;7.18;6.55;;;;;;;25.54;41.82;94482.78;5032827;28;20651;-62
2022/08/20 02:35:18;;;;;;;7.20;6.50;;;;;;;25.61;41.95;94482.53;5034086;28;20263;-61
2022/08/20 02:37:45;;;;;;;6.70;6.10;;;;;;;25.62;41.69;94479.59;5041379;28;20213;-61
2022/08/20 02:40:15;;;;;;;8.00;6.90;;;;;;;25.57;41.69;94478.75;5036901;28;20244;-60
2022/08/20 02:42:41;;;;;;;7.78;6.63;;;;;;;25.56;41.99;94483.34;5038737;28;20217;-60
2022/08/20 02:45:09;;;;;;;6.78;5.85;;;;;;;25.57;41.93;94473.38;5037919;28;20274;-61
2022/08/20 02:47:35;;;;;;;9.07;6.30;;;;;;;25.65;41.80;94473.69;5039533;28;22620;-61
2022/08/20 02:50:03;;;;;;;10.20;6.88;;;;;;;25.59;42.04;94472.03;5039872;28;20673;-62
2022/08/20 02:52:28;;;;;;;7.97;6.50;;;;;;;25.61;41.77;94483.38;5036067;28;20225;-61
2022/08/20 02:54:54;;;;;;;7.45;6.43;;;;;;;25.58;41.92;94483.91;5043714;28;20302;-63
2022/08/20 02:57:19;;;;;;;7.20;6.35;;;;;;;25.53;42.13;94490.03;5044028;28;20236;-61
2022/08/20 02:59:46;;;;;;;7.07;6.38;;;;;;;25.52;41.97;94487.59;5042163;28;20241;-62
2022/08/20 03:02:12;;;;;;;6.97;6.28;;;;;;;25.55;42.27;94487.09;5044276;28;20252;-61
2022/08/20 03:04:38;;;;;;;6.32;5.72;;;;;;;25.55;42.07;94481.69;5040486;28;20224;-61
2022/08/20 03:07:05;;;;;;;7.93;6.78;;;;;;;25.53;42.19;94490.03;5038983;28;20242;-61
2022/08/20 03:09:30;;;;;;;7.20;6.47;;;;;;;25.48;42.32;94491.91;5035934;28;20221;-61
2022/08/20 03:11:56;;;;;;;9.57;6.82;;;;;;;25.44;42.81;94490.78;5037493;28;20222;-62
2022/08/20 03:14:21;;;;;;;8.18;6.82;;;;;;;25.41;42.70;94486.72;5045096;28;20300;-62
2022/08/20 03:16:47;;;;;;;8.32;6.40;;;;;;;25.42;42.85;94485.66;5043618;28;20296;-61
2022/08/20 03:19:12;;;;;;;7.38;6.22;;;;;;;25.36;42.77;94486.66;5037749;28;20539;-62
2022/08/20 03:21:38;;;;;;;7.32;6.60;;;;;;;25.34;42.69;94483.44;5038988;28;20320;-62
2022/08/20 03:24:04;;;;;;;9.35;6.22;;;;;;;25.31;42.94;94486.63;5036968;28;20233;-61
2022/08/20 03:26:29;;;;;;;7.88;7.07;;;;;;;25.20;43.14;94488.41;5038077;28;20214;-62
2022/08/20 03:28:54;;;;;;;7.03;6.32;;;;;;;25.23;43.10;94495.16;5045531;28;20216;-61
2022/08/20 03:31:20;;;;;;;9.98;7.15;;;;;;;25.19;43.58;94494.06;5043459;28;20300;-61
2022/08/20 03:33:45;;;;;;;7.22;6.50;;;;;;;25.18;43.60;94492.44;5046331;28;20232;-62
2022/08/20 03:36:11;;;;;;;7.35;6.65;;;;;;;25.14;43.90;94492.09;5041334;28;20221;-62
2022/08/20 03:38:36;;;;;;;7.13;6.43;;;;;;;25.12;43.68;94491.53;5042976;28;20249;-61
2022/08/20 03:41:02;;;;;;;7.50;6.80;;;;;;;25.03;44.26;94499.28;5037689;28;20237;-60
2022/08/20 03:43:28;;;;;;;7.95;7.05;;;;;;;25.05;44.03;94501.72;5042752;28;20214;-61
2022/08/20 03:45:53;;;;;;;9.93;7.03;;;;;;;25.02;44.03;94510.28;5037727;28;20235;-62
2022/08/20 03:48:20;;;;;;;8.73;7.25;;;;;;;25.00;44.30;94507.06;5047962;28;20896;-62
2022/08/20 03:50:47;;;;;;;6.95;6.25;;;;;;;24.95;44.08;94510.50;5042584;28;20257;-61
2022/08/20 03:53:13;;;;;;;7.65;6.90;;;;;;;24.93;44.37;94512.63;5039099;28;20210;-61
2022/08/20 03:55:40;;;;;;;7.82;6.97;;;;;;;24.78;45.37;94507.91;5040691;28;20364;-61
2022/08/20 03:58:07;;;;;;;7.90;7.20;;;;;;;24.71;45.11;94512.66;5041587;28;20214;-61
2022/08/20 04:00:46;;;;;;;10.55;7.50;;;;;;;24.87;45.09;94511.75;5040295;28;20219;-61
2022/08/20 04:03:12;;;;;;;12.05;7.55;;;;;;;24.77;45.65;94511.63;5044102;28;20247;-61
2022/08/20 04:05:39;;;;;;;11.20;6.70;;;;;;;24.78;45.09;94515.97;5043549;28;20222;-61
2022/08/20 04:08:17;;;;;;;7.90;7.18;;;;;;;24.84;44.89;94516.84;5047852;28;20209;-61
2022/08/20 04:10:45;;;;;;;8.15;7.18;;;;;;;24.75;45.25;94515.66;5042455;28;20221;-60
2022/08/20 04:13:11;;;;;;;8.85;7.07;;;;;;;24.78;44.80;94515.13;5037388;28;20222;-61
2022/08/20 04:15:36;;;;;;;7.22;6.45;;;;;;;24.78;44.59;94521.34;5043287;28;20233;-63
2022/08/20 04:18:06;;;;;;;6.65;6.05;;;;;;;24.80;45.08;94515.69;5041905;28;20217;-61
2022/08/20 04:20:33;;;;;;;7.90;7.10;;;;;;;24.85;45.40;94516.56;5042995;28;20245;-60
2022/08/20 04:23:00;;;;;;;7.95;7.25;;;;;;;24.67;45.00;94521.47;5042865;28;20209;-60
2022/08/20 04:25:30;;;;;;;9.40;7.45;;;;;;;24.67;45.08;94524.97;5036168;28;20552;-60
2022/08/20 04:28:01;;;;;;;7.55;6.70;;;;;;;24.64;45.72;94528.16;5035574;28;20255;-60
2022/08/20 04:30:28;;;;;;;10.65;7.55;;;;;;;24.58;46.02;94526.50;5033483;28;20360;-61
2022/08/20 04:32:54;;;;;;;9.68;7.95;;;;;;;24.61;46.11;94520.59;5037886;28;20236;-60
2022/08/20 04:35:23;;;;;;;10.13;7.50;;;;;;;24.68;45.98;94523.13;5038255;28;20202;-60
2022/08/20 04:37:56;;;;;;;8.00;7.25;;;;;;;24.61;46.11;94524.09;5035369;28;20214;-60
2022/08/20 04:43:06;;;;;;;8.30;7.32;;;;;;;24.69;46.79;94519.34;5039971;28;20257;-60
2022/08/20 04:45:32;;;;;;;7.88;6.65;;;;;;;24.79;46.16;94520.28;5036020;28;20226;-60
2022/08/20 04:48:04;;;;;;;8.70;7.95;;;;;;;24.72;46.45;94524.22;5031962;28;20221;-61
2022/08/20 04:50:33;;;;;;;8.10;7.25;;;;;;;24.86;46.26;94534.34;5036450;28;20202;-60
2022/08/20 04:52:59;;;;;;;8.52;7.60;;;;;;;24.91;46.00;94533.56;5036447;28;20465;-61
2022/08/20 04:55:24;;;;;;;9.23;8.32;;;;;;;24.97;45.72;94531.78;5035253;28;20240;-61
2022/08/20 04:57:51;;;;;;;8.30;7.50;;;;;;;24.58;46.60;94531.88;5040765;28;20221;-61
2022/08/20 05:00:17;;;;;;;11.35;7.60;;;;;;;24.73;46.51;94526.66;5038332;28;20321;-61
2022/08/20 05:02:43;;;;;;;8.00;7.40;;;;;;;24.92;46.72;94524.44;5038185;28;20245;-61
2022/08/20 05:05:09;;;;;;;9.15;7.25;;;;;;;25.06;45.65;94522.97;5033303;28;20191;-61
2022/08/20 05:07:44;;;;;;;8.35;7.40;;;;;;;25.03;46.09;94526.16;5032604;28;20313;-61
2022/08/20 05:10:12;;;;;;;9.75;7.90;;;;;;;25.03;46.10;94530.75;5034617;28;20230;-61
2022/08/20 05:12:42;;;;;;;10.68;7.55;;;;;;;25.16;45.78;94526.88;5035309;28;20325;-62
2022/08/20 05:15:12;;;;;;;8.25;7.43;;;;;;;25.09;45.79;94525.16;5038398;28;20697;-60
2022/08/20 05:17:39;;;;;;;8.82;7.55;;;;;;;25.17;45.73;94536.56;5039265;28;20723;-61
2022/08/20 05:20:08;;;;;;;9.13;8.18;;;;;;;25.07;46.12;94535.38;5037697;28;20649;-60
2022/08/20 05:22:33;;;;;;;9.02;7.40;;;;;;;25.20;45.93;94534.16;5035502;28;20260;-61
2022/08/20 05:25:00;;;;;;;9.80;7.60;;;;;;;25.30;45.52;94530.75;5029937;28;20290;-61
2022/08/20 05:27:26;;;;;;;8.95;8.05;;;;;;;25.26;46.02;94517.00;5027125;28;20229;-62
2022/08/20 05:30:08;;;;;;;10.07;7.35;;;;;;;25.35;45.66;94519.25;5033193;28;20250;-61
2022/08/20 05:32:34;;;;;;;8.50;7.75;;;;;;;25.44;45.36;94517.69;5043963;28;20205;-61
2022/08/20 05:35:05;;;;;;;8.35;7.30;;;;;;;25.43;45.46;94514.19;5042428;28;20233;-60
2022/08/20 05:37:33;;;;;;;9.43;8.52;;;;;;;25.47;44.80;94512.63;5019785;28;20226;-60
2022/08/20 05:39:59;;;;;;;8.30;7.63;;;;;;;25.53;44.67;94511.59;5037674;28;20234;-60
2022/08/20 05:42:25;;;;;;;8.93;8.02;;;;;;;25.51;44.75;94515.59;5035695;28;20640;-61
2022/08/20 05:44:51;;;;;;;8.85;7.95;;;;;;;25.58;45.02;94508.13;5030528;28;20222;-60
2022/08/20 05:47:17;;;;;;;9.50;7.32;;;;;;;25.63;45.07;94510.81;5029093;28;20240;-61
2022/08/20 05:49:42;;;;;;;8.32;7.53;;;;;;;25.72;44.94;94508.50;5041916;28;20206;-61
2022/08/20 05:52:08;;;;;;;9.60;7.50;;;;;;;25.87;45.08;94511.28;5038064;28;20327;-60
2022/08/20 05:54:36;;;;;;;11.27;7.78;;;;;;;25.85;45.50;94513.47;5034036;28;20280;-60
2022/08/20 05:57:01;;;;;;;8.48;7.70;;;;;;;25.86;44.95;94512.38;5035121;28;20228;-61
2022/08/20 05:59:27;;;;;;;9.07;8.13;;;;;;;25.79;44.57;94509.06;5039525;28;20272;-61
2022/08/20 06:01:53;;;;;;;15.75;8.30;;;;;;;25.93;44.54;94507.59;5040963;28;20289;-60
2022/08/20 06:04:26;;;;;;;8.75;7.28;;;;;;;26.05;44.33;94501.19;5037411;28;20213;-60
2022/08/20 06:06:56;;;;;;;8.95;8.25;;;;;;;26.09;44.44;94500.41;5034058;28;20261;-60
2022/08/20 06:09:24;;;;;;;10.70;8.13;;;;;;;26.17;44.75;94502.59;5036417;28;20304;-60
2022/08/20 06:11:49;;;;;;;9.07;8.23;;;;;;;26.00;44.74;94498.44;5029459;28;20253;-60
2022/08/20 06:14:15;;;;;;;8.52;7.72;;;;;;;26.17;44.31;94508.00;5033019;28;20300;-61
2022/08/20 06:16:42;;;;;;;9.05;8.27;;;;;;;26.11;45.02;94502.81;5033212;28;20229;-60
2022/08/20 06:19:07;;;;;;;8.77;7.97;;;;;;;25.79;44.97;94506.38;5032695;28;20228;-60
2022/08/20 06:21:32;;;;;;;9.77;8.43;;;;;;;26.08;44.15;94508.72;5033736;28;20229;-60
2022/08/20 06:23:59;;;;;;;8.45;7.43;;;;;;;26.14;44.37;94518.47;5035273;28;20244;-60
2022/08/20 06:26:24;;;;;;;9.18;8.27;;;;;;;26.27;43.62;94515.28;5039438;28;20478;-61
2022/08/20 06:28:49;;;;;;;8.95;8.15;;;;;;;26.22;43.81;94530.63;5035202;28;20194;-61
2022/08/20 06:31:15;;;;;;;12.60;7.60;;;;;;;26.38;43.62;94519.69;5028837;28;20656;-61
2022/08/20 06:33:41;;;;;;;9.95;8.10;;;;;;;26.49;43.45;94517.00;5034922;28;20291;-60
2022/08/20 06:36:07;;;;;;;8.85;7.95;;;;;;;26.50;43.21;94513.25;5030607;28;20221;-62
2022/08/20 06:38:32;;;;;;;8.98;8.00;;;;;;;26.65;43.02;94515.22;5040453;28;20212;-61
2022/08/20 06:40:58;;;;;;;9.65;8.65;;;;;;;26.63;44.01;94502.00;5035250;28;20312;-61
2022/08/20 06:43:24;;;;;;;9.50;8.50;;;;;;;26.80;43.27;94505.28;5034718;28;20222;-60
2022/08/20 06:45:50;;;;;;;9.32;8.05;;;;;;;26.83;42.69;94506.66;5032884;28;20235;-61
2022/08/20 06:48:16;;;;;;;10.43;9.43;;;;;;;26.81;43.11;94509.63;5033318;28;20249;-60
2022/08/20 06:50:44;;;;;;;10.00;9.05;;;;;;;26.86;42.97;94511.50;5034531;28;20348;-60
2022/08/20 06:53:12;;;;;;;10.07;8.88;;;;;;;26.90;42.50;94506.41;5036641;28;20198;-61
2022/08/20 06:55:42;;;;;;;12.88;8.90;;;;;;;26.78;42.87;94509.31;5035037;28;20226;-61
2022/08/20 06:58:10;;;;;;;11.20;10.02;;;;;;;26.80;43.01;94502.59;5031044;28;20256;-61
2022/08/20 07:00:38;;;;;;;14.40;8.95;;;;;;;26.89;42.76;94493.97;5041096;28;20229;-61
2022/08/20 07:03:03;;;;;;;9.75;8.50;;;;;;;27.01;42.29;94495.34;5036756;28;20241;-61
2022/08/20 07:05:31;;;;;;;9.55;8.65;;;;;;;27.15;42.40;94498.34;5035514;28;20198;-61
2022/08/20 07:07:57;;;;;;;9.18;8.27;;;;;;;26.96;42.64;94495.34;5033255;28;20665;-60
2022/08/20 07:10:24;;;;;;;9.88;8.70;;;;;;;26.82;42.88;94489.66;5033796;28;20236;-60
2022/08/20 07:12:49;;;;;;;8.95;8.07;;;;;;;26.94;42.46;94488.59;5031124;28;20587;-60
2022/08/20 07:15:17;;;;;;;9.55;8.65;;;;;;;27.14;42.43;94480.53;5032922;28;20234;-61
2022/08/20 07:17:55;;;;;;;9.65;8.50;;;;;;;27.36;42.08;94477.59;5035453;28;20225;-59
2022/08/20 07:20:21;;;;;;;9.38;7.53;;;;;;;27.45;41.08;94477.88;5044791;28;20205;-60
2022/08/20 07:22:47;;;;;;;9.23;8.07;;;;;;;27.52;42.24;94478.41;5039351;28;20206;-59
2022/08/20 07:25:15;;;;;;;8.52;7.72;;;;;;;27.56;41.27;94476.81;5035225;28;20233;-60
2022/08/20 07:27:41;;;;;;;11.38;7.95;;;;;;;27.69;40.44;94478.13;5039656;28;20252;-62
2022/08/20 07:32:56;;;;;;;10.15;7.72;;;;;;;27.76;40.38;94467.84;5035972;28;20251;-60
2022/08/20 07:35:22;;;;;;;9.10;8.23;;;;;;;27.81;41.03;94462.47;5043062;28;20348;-60
2022/08/20 07:37:50;;;;;;;8.63;7.93;;;;;;;27.90;40.92;94470.84;5043330;28;20665;-60
2022/08/20 07:40:26;;;;;;;8.57;7.93;;;;;;;27.78;40.77;94465.69;5034406;28;20253;-60
2022/08/20 07:42:55;;;;;;;8.43;7.65;;;;;;;28.02;40.88;94467.84;5033935;28;20235;-59
2022/08/20 07:45:22;;;;;;;9.18;8.48;;;;;;;28.18;40.28;94466.72;5040492;28;20242;-60
2022/08/20 07:47:48;;;;;;;11.80;8.60;;;;;;;28.26;40.61;94462.63;5037615;28;20312;-60
2022/08/20 07:50:17;;;;;;;8.93;8.02;;;;;;;28.32;41.20;94475.03;5036560;28;20256;-61
2022/08/20 07:52:44;;;;;;;9.40;8.40;;;;;;;28.37;40.20;94470.41;5040089;28;20233;-62
2022/08/20 07:55:12;;;;;;;10.98;8.25;;;;;;;28.30;39.64;94469.09;5040177;28;20222;-59
2022/08/20 07:57:38;;;;;;;10.82;8.10;;;;;;;28.42;39.95;94463.38;5040876;28;20222;-60
2022/08/20 08:00:07;;;;;;;8.85;7.95;;;;;;;28.55;39.60;94462.81;5039183;28;20233;-60
2022/08/20 08:02:34;;;;;;;8.23;7.50;;;;;;;28.55;38.16;94466.31;5038426;28;20202;-60
2022/08/20 08:05:00;;;;;;;8.63;7.38;;;;;;;28.47;38.72;94469.63;5042740;28;20210;-60
2022/08/20 08:07:26;;;;;;;10.50;9.50;;;;;;;28.66;37.93;94466.28;5045198;28;20320;-60
2022/08/20 08:09:53;;;;;;;9.95;8.43;;;;;;;28.63;38.70;94467.66;5040667;28;20272;-60
2022/08/20 08:12:20;;;;;;;9.27;7.43;;;;;;;28.59;39.19;94474.69;5027054;28;20222;-60
2022/08/20 08:14:47;;;;;;;8.35;7.57;;;;;;;28.75;38.42;94465.41;5036133;28;20222;-60
2022/08/20 08:17:15;;;;;;;9.52;7.85;;;;;;;28.90;38.84;94463.72;5036746;28;20198;-61
2022/08/20 08:19:47;;;;;;;8.63;7.82;;;;;;;28.93;38.72;94468.56;5043577;28;20245;-60
2022/08/20 08:22:16;;;;;;;9.35;7.95;;;;;;;28.96;38.16;94465.28;5037286;28;20237;-61
2022/08/20 08:24:44;;;;;;;10.63;8.68;;;;;;;28.96;38.59;94457.97;5034489;28;20226;-61
2022/08/20 08:27:10;;;;;;;8.35;7.28;;;;;;;29.02;38.53;94456.84;5040266;28;20616;-60
2022/08/20 08:29:36;;;;;;;9.32;8.20;;;;;;;29.08;38.49;94454.94;5037186;28;20257;-59
2022/08/20 08:32:03;;;;;;;9.65;7.97;;;;;;;29.07;39.03;94450.63;5036491;28;20237;-60
2022/08/20 08:34:30;;;;;;;8.20;7.60;;;;;;;29.12;39.01;94444.38;5041740;28;20305;-60
2022/08/20 08:36:57;;;;;;;8.80;8.10;;;;;;;29.20;38.54;94449.19;5040790;28;20222;-60
2022/08/20 08:39:23;;;;;;;9.30;8.25;;;;;;;29.27;38.03;94452.38;5038125;28;20221;-60
2022/08/20 08:41:50;;;;;;;9.00;8.23;;;;;;;29.29;37.88;94443.97;5034482;28;20233;-60
2022/08/20 08:44:23;;;;;;;8.88;7.97;;;;;;;29.27;38.13;94438.84;5047284;28;20213;-60
2022/08/20 08:46:55;;;;;;;9.30;8.40;;;;;;;29.37;37.83;94436.03;5047137;28;20490;-60
2022/08/20 08:49:25;;;;;;;8.88;8.07;;;;;;;29.39;37.68;94423.03;5041263;28;20313;-60
2022/08/20 08:51:55;;;;;;;8.45;7.78;;;;;;;29.42;37.70;94422.44;5033080;28;20228;-60
2022/08/20 08:54:24;;;;;;;9.82;9.00;;;;;;;29.46;37.81;94434.34;5033895;28;20256;-60
2022/08/20 08:56:50;;;;;;;8.23;7.53;;;;;;;29.53;36.44;94423.16;5039448;28;20283;-60
2022/08/20 08:59:18;;;;;;;8.48;7.88;;;;;;;29.54;37.17;94419.38;5033542;28;20198;-59
2022/08/20 09:01:49;;;;;;;8.98;8.18;;;;;;;29.42;36.83;94414.31;5042187;28;20201;-60
2022/08/20 09:04:17;;;;;;;8.73;7.93;;;;;;;29.49;37.13;94416.72;5039135;28;20232;-60
2022/08/20 09:06:43;;;;;;;9.02;8.27;;;;;;;29.57;37.91;94413.38;5038559;28;20253;-60
2022/08/20 09:09:23;;;;;;;8.85;8.05;;;;;;;29.65;37.23;94415.50;5037727;28;20229;-60
2022/08/20 09:12:02;;;;;;;9.00;8.27;;;;;;;29.76;36.30;94412.69;5039067;28;20262;-60
2022/08/20 09:14:27;;;;;;;9.40;8.50;;;;;;;29.92;35.22;94416.06;5038631;28;20255;-60
2022/08/20 09:16:53;;;;;;;10.23;7.50;;;;;;;29.88;35.39;94422.06;5035326;28;20213;-60
2022/08/20 09:19:19;;;;;;;8.63;7.82;;;;;;;29.99;35.49;94420.03;5042550;28;20217;-60
2022/08/20 09:21:44;;;;;;;8.23;7.47;;;;;;;29.99;36.04;94421.91;5037309;28;20232;-60
2022/08/20 09:24:10;;;;;;;9.00;8.13;;;;;;;30.06;36.35;94422.38;5042533;28;20230;-61
2022/08/20 09:26:35;;;;;;;8.63;7.78;;;;;;;30.24;35.39;94421.66;5042760;28;20773;-61
2022/08/20 09:29:01;;;;;;;8.80;8.00;;;;;;;30.37;35.03;94413.91;5042653;28;20252;-61
2022/08/20 09:31:26;;;;;;;9.02;8.13;;;;;;;30.45;35.04;94411.38;5036388;28;20304;-61
2022/08/20 09:33:52;;;;;;;9.40;8.52;;;;;;;30.59;34.50;94408.75;5035351;28;20237;-61
2022/08/20 09:36:18;;;;;;;9.57;8.07;;;;;;;30.67;34.41;94405.38;5040628;28;20257;-60
2022/08/20 09:38:43;;;;;;;8.18;7.57;;;;;;;30.69;34.14;94405.88;5038885;28;20250;-60
2022/08/20 09:41:09;;;;;;;8.93;8.13;;;;;;;30.82;34.35;94398.97;5038901;28;20283;-61
2022/08/20 09:43:34;;;;;;;9.27;8.35;;;;;;;30.87;34.14;94401.56;5031600;28;20252;-59
2022/08/20 09:46:00;;;;;;;10.02;9.07;;;;;;;30.88;33.64;94391.53;5034032;28;20228;-60
2022/08/20 09:48:25;;;;;;;8.35;7.70;;;;;;;31.15;33.83;94394.34;5035636;28;20225;-60
2022/08/20 09:50:50;;;;;;;8.98;8.15;;;;;;;31.29;33.07;94388.97;5036372;28;20316;-60
2022/08/20 09:53:18;;;;;;;8.77;7.95;;;;;;;31.37;32.67;94395.66;5042360;28;20205;-60
2022/08/20 09:55:47;;;;;;;9.65;8.13;;;;;;;31.38;32.31;94397.25;5040298;28;20206;-60
2022/08/20 09:58:33;;;;;;;8.15;7.53;;;;;;;31.51;32.32;94385.63;5036657;28;20260;-60
2022/08/20 10:01:05;;;;;;;7.90;7.30;;;;;;;31.62;32.28;94392.50;5034868;28;20387;-60
2022/08/20 10:03:31;;;;;;;8.10;7.40;;;;;;;31.71;32.29;94395.34;5049598;28;20250;-60
2022/08/20 10:05:56;;;;;;;8.50;7.85;;;;;;;31.72;31.94;94396.94;5042924;28;20356;-61
2022/08/20 10:08:22;;;;;;;8.20;7.57;;;;;;;31.79;31.54;94391.94;5036674;28;20201;-60
2022/08/20 10:10:47;;;;;;;8.57;7.88;;;;;;;31.97;31.11;94392.16;5034427;28;20288;-60
2022/08/20 10:13:12;;;;;;;9.32;8.40;;;;;;;32.11;30.78;94387.53;5039153;28;20224;-60
2022/08/20 10:15:38;;;;;;;8.65;7.80;;;;;;;32.23;31.06;94389.75;5039877;28;20218;-60
2022/08/20 10:18:06;;;;;;;9.50;8.05;;;;;;;32.32;30.20;94389.81;5034456;28;20257;-60
2022/08/20 10:20:31;;;;;;;8.68;7.78;;;;;;;32.49;31.30;94381.88;5038732;28;20269;-60
2022/08/20 10:22:57;;;;;;;8.82;8.02;;;;;;;32.67;30.63;94380.94;5032913;28;20282;-60
2022/08/20 10:25:22;;;;;;;8.80;8.10;;;;;;;32.94;30.54;94382.75;5034924;28;20252;-60
2022/08/20 10:27:48;;;;;;;9.38;7.90;;;;;;;33.11;29.34;94386.75;5038911;28;20222;-60
2022/08/20 10:30:13;;;;;;;8.88;8.10;;;;;;;33.22;29.16;94376.41;5046605;28;20217;-61
2022/08/20 10:32:39;;;;;;;8.27;7.57;;;;;;;33.24;29.12;94371.47;5026935;28;20217;-60
2022/08/20 10:35:05;;;;;;;7.85;7.05;;;;;;;33.31;28.37;94374.56;5040339;28;20225;-60
2022/08/20 10:37:33;;;;;;;8.13;7.32;;;;;;;33.49;26.39;94370.81;5043323;28;20274;-59
2022/08/20 10:39:59;;;;;;;8.00;7.30;;;;;;;33.62;26.57;94374.59;5034466;28;20228;-61
2022/08/20 10:42:24;;;;;;;8.32;7.72;;;;;;;33.43;28.41;94369.34;5032696;28;20595;-62
2022/08/20 10:44:50;;;;;;;7.68;7.10;;;;;;;33.59;28.62;94364.34;5035304;28;20299;-61
2022/08/20 10:47:24;;;;;;;8.50;7.80;;;;;;;33.75;28.64;94362.81;5036772;28;20264;-61
2022/08/20 10:49:52;;;;;;;10.05;7.82;;;;;;;33.80;27.89;94359.94;5038856;28;20202;-61
2022/08/20 10:52:19;;;;;;;7.72;7.13;;;;;;;33.89;27.94;94365.41;5035185;28;20233;-61
2022/08/20 10:54:45;;;;;;;8.50;6.88;;;;;;;33.91;26.88;94365.13;5042668;28;20238;-62
2022/08/20 10:57:25;;;;;;;8.85;7.97;;;;;;;34.23;26.80;94353.84;5037297;28;20318;-62
2022/08/20 10:59:52;;;;;;;9.75;8.45;;;;;;;34.30;27.94;94355.31;5030990;28;20217;-61
2022/08/20 11:02:18;;;;;;;8.27;7.57;;;;;;;34.09;27.40;94358.63;5034963;28;20236;-61
2022/08/20 11:04:45;;;;;;;8.40;7.65;;;;;;;34.03;27.96;94351.69;5041337;28;20209;-61
2022/08/20 11:07:22;;;;;;;8.50;7.80;;;;;;;34.02;27.94;94350.06;5039904;28;20230;-60
2022/08/20 11:09:48;;;;;;;8.80;8.10;;;;;;;33.54;27.96;94356.28;5035082;28;20224;-60
2022/08/20 11:12:16;;;;;;;8.23;7.40;;;;;;;33.66;28.88;94344.81;5038702;28;20270;-61
2022/08/20 11:14:42;;;;;;;8.57;7.78;;;;;;;33.70;28.65;94346.56;5033732;28;20233;-61
2022/08/20 11:17:08;;;;;;;9.95;8.98;;;;;;;33.56;28.08;94349.41;5034733;28;20220;-60
2022/08/20 11:19:39;;;;;;;8.43;7.63;;;;;;;33.58;27.75;94347.19;5034470;28;20213;-61
2022/08/20 11:22:05;;;;;;;8.80;7.65;;;;;;;33.30;28.10;94332.06;5034405;28;20304;-61
2022/08/20 11:24:31;;;;;;;9.45;7.90;;;;;;;33.28;28.46;94326.97;5035069;28;20237;-61
2022/08/20 11:26:56;;;;;;;8.93;8.10;;;;;;;33.03;29.01;94319.41;5034617;28;20228;-61
2022/08/20 11:29:23;;;;;;;8.23;7.53;;;;;;;32.79;30.17;94320.50;5031718;28;20200;-62
2022/08/20 11:31:49;;;;;;;8.45;7.65;;;;;;;32.73;28.67;94319.00;5036896;28;20208;-60
2022/08/20 11:34:15;;;;;;;8.98;8.10;;;;;;;32.60;29.79;94314.41;5038160;28;20312;-60
2022/08/20 11:36:41;;;;;;;8.20;7.40;;;;;;;32.69;28.95;94304.41;5035698;28;20360;-61
2022/08/20 11:39:06;;;;;;;9.65;8.70;;;;;;;32.44;28.91;94303.03;5040018;28;20222;-61
2022/08/20 11:41:32;;;;;;;9.30;8.30;;;;;;;32.45;29.10;94293.75;5043185;28;20357;-61